sensor_id;sensor_type;location;lat;lon;timestamp;temperature;humidity
63260;DHT22;49390;51.380;0.098;2022-09-13T00:01:11;19.90;99.90
63260;DHT22;49390;51.380;0.098;2022-09-13T00:03:40;19.90;99.90
63260;DHT22;49390;51.380;0.098;2022-09-13T00:06:17;19.90;99.90
63260;DHT22;49390;51.380;0.098;2022-09-13T00:08:47;19.90;99.90
63260;DHT22;49390;51.380;0.098;2022-09-13T00:11:19;19.90;99.90
63260;DHT22;49390;51.380;0.098;2022-09-13T00:16:13;19.90;99.90
63260;DHT22;49390;51.380;0.098;2022-09-13T00:18:42;19.80;99.90
63260;DHT22;49390;51.380;0.098;2022-09-13T00:21:13;19.90;99.90
63260;DHT22;49390;51.380;0.098;2022-09-13T00:23:47;19.80;99.90
63260;DHT22;49390;51.380;0.098;2022-09-13T00:26:19;19.80;99.90
63260;DHT22;49390;51.380;0.098;2022-09-13T00:28:49;19.80;99.90
63260;DHT22;49390;51.380;0.098;2022-09-13T00:31:19;19.80;99.90
63260;DHT22;49390;51.380;0.098;2022-09-13T00:33:49;19.80;99.90
63260;DHT22;49390;51.380;0.098;2022-09-13T00:36:17;19.80;99.90
63260;DHT22;49390;51.380;0.098;2022-09-13T00:38:46;19.80;99.90
63260;DHT22;49390;51.380;0.098;2022-09-13T00:41:16;19.80;99.90
63260;DHT22;49390;51.380;0.098;2022-09-13T00:43:59;19.70;99.90
63260;DHT22;49390;51.380;0.098;2022-09-13T00:46:36;19.60;99.90
63260;DHT22;49390;51.380;0.098;2022-09-13T00:49:20;19.60;99.90
63260;DHT22;49390;51.380;0.098;2022-09-13T00:51:56;19.60;99.90
63260;DHT22;49390;51.380;0.098;2022-09-13T00:54:30;19.60;99.90
63260;DHT22;49390;51.380;0.098;2022-09-13T00:57:00;19.60;99.90
63260;DHT22;49390;51.380;0.098;2022-09-13T00:59:39;19.50;99.90
63260;DHT22;49390;51.380;0.098;2022-09-13T01:02:08;19.50;99.90
63260;DHT22;49390;51.380;0.098;2022-09-13T01:04:37;19.50;99.90
63260;DHT22;49390;51.380;0.098;2022-09-13T01:07:08;19.50;99.90
63260;DHT22;49390;51.380;0.098;2022-09-13T01:09:43;19.40;99.90
63260;DHT22;49390;51.380;0.098;2022-09-13T01:14:45;19.40;99.90
63260;DHT22;49390;51.380;0.098;2022-09-13T01:17:14;19.30;99.90
63260;DHT22;49390;51.380;0.098;2022-09-13T01:19:43;19.30;99.90
63260;DHT22;49390;51.380;0.098;2022-09-13T01:22:17;19.30;99.90
63260;DHT22;49390;51.380;0.098;2022-09-13T01:25:17;19.20;99.90
63260;DHT22;49390;51.380;0.098;2022-09-13T01:30:38;19.10;99.90
63260;DHT22;49390;51.380;0.098;2022-09-13T01:33:47;19.10;99.90
63260;DHT22;49390;51.380;0.098;2022-09-13T01:36:41;19.10;99.90
63260;DHT22;49390;51.380;0.098;2022-09-13T01:39:16;19.10;99.90
63260;DHT22;49390;51.380;0.098;2022-09-13T01:44:55;19.00;99.90
63260;DHT22;49390;51.380;0.098;2022-09-13T01:47:36;19.00;99.90
63260;DHT22;49390;51.380;0.098;2022-09-13T01:50:20;19.00;99.90
63260;DHT22;49390;51.380;0.098;2022-09-13T01:52:56;19.00;99.90
63260;DHT22;49390;51.380;0.098;2022-09-13T01:55:44;19.00;99.90
63260;DHT22;49390;51.380;0.098;2022-09-13T02:06:40;18.90;99.90
63260;DHT22;49390;51.380;0.098;2022-09-13T02:09:19;18.90;99.90
63260;DHT22;49390;51.380;0.098;2022-09-13T02:11:56;18.90;99.90
63260;DHT22;49390;51.380;0.098;2022-09-13T02:14:33;18.90;99.90
63260;DHT22;49390;51.380;0.098;2022-09-13T02:17:10;18.80;99.90
63260;DHT22;49390;51.380;0.098;2022-09-13T02:19:46;18.80;99.90
63260;DHT22;49390;51.380;0.098;2022-09-13T02:22:19;18.80;99.90
63260;DHT22;49390;51.380;0.098;2022-09-13T02:24:53;18.80;99.90
63260;DHT22;49390;51.380;0.098;2022-09-13T02:27:25;18.80;99.90
63260;DHT22;49390;51.380;0.098;2022-09-13T02:29:57;18.80;99.90
63260;DHT22;49390;51.380;0.098;2022-09-13T02:32:34;18.80;99.90
63260;DHT22;49390;51.380;0.098;2022-09-13T02:35:25;18.80;99.90
63260;DHT22;49390;51.380;0.098;2022-09-13T02:38:02;18.80;99.90
63260;DHT22;49390;51.380;0.098;2022-09-13T02:40:37;18.90;99.90
63260;DHT22;49390;51.380;0.098;2022-09-13T02:43:14;18.90;99.90
63260;DHT22;49390;51.380;0.098;2022-09-13T02:48:57;19.00;99.90
63260;DHT22;49390;51.380;0.098;2022-09-13T02:51:29;19.00;99.90
63260;DHT22;49390;51.380;0.098;2022-09-13T02:56:53;19.20;99.90
63260;DHT22;49390;51.380;0.098;2022-09-13T02:59:23;19.10;99.90
63260;DHT22;49390;51.380;0.098;2022-09-13T03:02:13;19.10;99.90
63260;DHT22;49390;51.380;0.098;2022-09-13T03:04:43;19.10;99.90
63260;DHT22;49390;51.380;0.098;2022-09-13T03:07:13;19.20;99.90
63260;DHT22;49390;51.380;0.098;2022-09-13T03:10:06;19.20;99.90
63260;DHT22;49390;51.380;0.098;2022-09-13T03:27:02;19.20;99.90
63260;DHT22;49390;51.380;0.098;2022-09-13T03:29:41;19.20;99.90
63260;DHT22;49390;51.380;0.098;2022-09-13T03:38:14;19.20;99.90
63260;DHT22;49390;51.380;0.098;2022-09-13T03:40:51;19.40;99.90
63260;DHT22;49390;51.380;0.098;2022-09-13T03:43:26;19.20;99.90
63260;DHT22;49390;51.380;0.098;2022-09-13T03:46:12;19.20;99.90
63260;DHT22;49390;51.380;0.098;2022-09-13T03:48:42;19.20;99.90
63260;DHT22;49390;51.380;0.098;2022-09-13T03:51:11;19.10;99.90
63260;DHT22;49390;51.380;0.098;2022-09-13T03:53:57;19.20;99.90
63260;DHT22;49390;51.380;0.098;2022-09-13T03:56:26;19.10;99.90
63260;DHT22;49390;51.380;0.098;2022-09-13T03:58:55;19.10;99.90
63260;DHT22;49390;51.380;0.098;2022-09-13T04:01:23;19.10;99.90
63260;DHT22;49390;51.380;0.098;2022-09-13T04:03:53;19.10;99.90
63260;DHT22;49390;51.380;0.098;2022-09-13T04:06:24;19.10;99.90
63260;DHT22;49390;51.380;0.098;2022-09-13T04:08:52;19.10;99.90
63260;DHT22;49390;51.380;0.098;2022-09-13T04:11:20;19.10;99.90
63260;DHT22;49390;51.380;0.098;2022-09-13T04:13:48;19.10;99.90
63260;DHT22;49390;51.380;0.098;2022-09-13T04:16:16;19.10;99.90
63260;DHT22;49390;51.380;0.098;2022-09-13T04:18:45;19.10;99.90
63260;DHT22;49390;51.380;0.098;2022-09-13T04:21:13;19.20;99.90
63260;DHT22;49390;51.380;0.098;2022-09-13T04:23:43;19.20;99.90
63260;DHT22;49390;51.380;0.098;2022-09-13T04:26:11;19.20;99.90
63260;DHT22;49390;51.380;0.098;2022-09-13T04:28:39;19.10;99.90
63260;DHT22;49390;51.380;0.098;2022-09-13T04:31:07;19.10;99.90
63260;DHT22;49390;51.380;0.098;2022-09-13T04:33:36;19.10;99.90
63260;DHT22;49390;51.380;0.098;2022-09-13T04:36:05;19.10;99.90
63260;DHT22;49390;51.380;0.098;2022-09-13T04:38:33;19.10;99.90
63260;DHT22;49390;51.380;0.098;2022-09-13T04:41:01;19.10;99.90
63260;DHT22;49390;51.380;0.098;2022-09-13T04:43:29;19.10;99.90
63260;DHT22;49390;51.380;0.098;2022-09-13T04:46:00;19.10;99.90
63260;DHT22;49390;51.380;0.098;2022-09-13T04:48:29;19.00;99.90
63260;DHT22;49390;51.380;0.098;2022-09-13T04:51:02;19.00;99.90
63260;DHT22;49390;51.380;0.098;2022-09-13T04:53:32;19.00;99.90
63260;DHT22;49390;51.380;0.098;2022-09-13T04:56:01;19.00;99.90
63260;DHT22;49390;51.380;0.098;2022-09-13T04:58:32;19.00;99.90
63260;DHT22;49390;51.380;0.098;2022-09-13T05:01:04;19.00;99.90
63260;DHT22;49390;51.380;0.098;2022-09-13T05:03:34;19.00;99.90
63260;DHT22;49390;51.380;0.098;2022-09-13T05:06:10;19.00;99.90
63260;DHT22;49390;51.380;0.098;2022-09-13T05:08:39;18.90;99.90
63260;DHT22;49390;51.380;0.098;2022-09-13T05:11:08;18.90;99.90
63260;DHT22;49390;51.380;0.098;2022-09-13T05:13:36;18.90;99.90
63260;DHT22;49390;51.380;0.098;2022-09-13T05:16:06;18.90;99.90
63260;DHT22;49390;51.380;0.098;2022-09-13T05:18:35;18.80;99.90
63260;DHT22;49390;51.380;0.098;2022-09-13T05:21:05;18.80;99.90
63260;DHT22;49390;51.380;0.098;2022-09-13T05:23:34;18.80;99.90
63260;DHT22;49390;51.380;0.098;2022-09-13T05:26:04;18.80;99.90
63260;DHT22;49390;51.380;0.098;2022-09-13T05:28:35;18.80;99.90
63260;DHT22;49390;51.380;0.098;2022-09-13T05:31:06;18.80;99.90
63260;DHT22;49390;51.380;0.098;2022-09-13T05:33:37;18.80;99.90
63260;DHT22;49390;51.380;0.098;2022-09-13T05:36:05;18.80;99.90
63260;DHT22;49390;51.380;0.098;2022-09-13T05:38:33;18.90;99.90
63260;DHT22;49390;51.380;0.098;2022-09-13T05:41:03;18.80;99.90
63260;DHT22;49390;51.380;0.098;2022-09-13T05:43:34;18.90;99.90
63260;DHT22;49390;51.380;0.098;2022-09-13T05:46:04;18.90;99.90
63260;DHT22;49390;51.380;0.098;2022-09-13T05:48:33;18.80;99.90
63260;DHT22;49390;51.380;0.098;2022-09-13T05:51:06;18.80;99.90
63260;DHT22;49390;51.380;0.098;2022-09-13T05:53:37;18.80;99.90
63260;DHT22;49390;51.380;0.098;2022-09-13T05:56:09;18.80;99.90
63260;DHT22;49390;51.380;0.098;2022-09-13T05:58:45;18.80;99.90
63260;DHT22;49390;51.380;0.098;2022-09-13T06:01:22;18.80;99.90
63260;DHT22;49390;51.380;0.098;2022-09-13T06:03:52;18.80;99.90
63260;DHT22;49390;51.380;0.098;2022-09-13T06:06:21;18.70;99.90
63260;DHT22;49390;51.380;0.098;2022-09-13T06:08:54;18.70;99.90
63260;DHT22;49390;51.380;0.098;2022-09-13T06:11:24;18.70;99.90
63260;DHT22;49390;51.380;0.098;2022-09-13T06:14:36;18.70;99.90
63260;DHT22;49390;51.380;0.098;2022-09-13T06:17:05;18.70;99.90
63260;DHT22;49390;51.380;0.098;2022-09-13T06:19:33;18.70;99.90
63260;DHT22;49390;51.380;0.098;2022-09-13T06:22:02;18.70;99.90
63260;DHT22;49390;51.380;0.098;2022-09-13T06:24:30;18.70;99.90
63260;DHT22;49390;51.380;0.098;2022-09-13T06:26:58;18.70;99.90
63260;DHT22;49390;51.380;0.098;2022-09-13T06:29:27;18.80;99.90
63260;DHT22;49390;51.380;0.098;2022-09-13T06:31:55;18.80;99.90
63260;DHT22;49390;51.380;0.098;2022-09-13T06:34:23;18.70;99.90
63260;DHT22;49390;51.380;0.098;2022-09-13T06:36:58;18.70;99.90
63260;DHT22;49390;51.380;0.098;2022-09-13T06:39:26;18.80;99.90
63260;DHT22;49390;51.380;0.098;2022-09-13T06:41:57;18.70;99.90
63260;DHT22;49390;51.380;0.098;2022-09-13T06:44:39;18.70;99.90
63260;DHT22;49390;51.380;0.098;2022-09-13T06:47:07;18.70;99.90
63260;DHT22;49390;51.380;0.098;2022-09-13T06:49:35;18.70;99.90
63260;DHT22;49390;51.380;0.098;2022-09-13T06:52:03;18.70;99.90
63260;DHT22;49390;51.380;0.098;2022-09-13T06:54:31;18.70;99.90
63260;DHT22;49390;51.380;0.098;2022-09-13T06:56:59;18.70;99.90
63260;DHT22;49390;51.380;0.098;2022-09-13T06:59:29;18.80;99.90
63260;DHT22;49390;51.380;0.098;2022-09-13T07:01:58;18.80;99.90
63260;DHT22;49390;51.380;0.098;2022-09-13T07:04:26;18.80;99.90
63260;DHT22;49390;51.380;0.098;2022-09-13T07:06:58;18.70;99.90
63260;DHT22;49390;51.380;0.098;2022-09-13T07:09:26;18.70;99.90
63260;DHT22;49390;51.380;0.098;2022-09-13T07:11:55;18.60;99.90
63260;DHT22;49390;51.380;0.098;2022-09-13T07:14:27;18.60;99.90
63260;DHT22;49390;51.380;0.098;2022-09-13T07:16:56;18.60;99.90
63260;DHT22;49390;51.380;0.098;2022-09-13T07:19:27;18.60;99.90
63260;DHT22;49390;51.380;0.098;2022-09-13T07:22:02;18.60;99.90
63260;DHT22;49390;51.380;0.098;2022-09-13T07:24:31;18.60;99.90
63260;DHT22;49390;51.380;0.098;2022-09-13T07:27:01;18.50;99.90
63260;DHT22;49390;51.380;0.098;2022-09-13T07:29:28;18.50;99.90
63260;DHT22;49390;51.380;0.098;2022-09-13T07:31:58;18.50;99.90
63260;DHT22;49390;51.380;0.098;2022-09-13T07:34:26;18.50;99.90
63260;DHT22;49390;51.380;0.098;2022-09-13T07:36:54;18.50;99.90
63260;DHT22;49390;51.380;0.098;2022-09-13T07:39:23;18.50;99.90
63260;DHT22;49390;51.380;0.098;2022-09-13T07:41:52;18.50;99.90
63260;DHT22;49390;51.380;0.098;2022-09-13T07:44:21;18.50;99.90
63260;DHT22;49390;51.380;0.098;2022-09-13T07:46:50;18.50;99.90
63260;DHT22;49390;51.380;0.098;2022-09-13T07:49:18;18.50;99.90
63260;DHT22;49390;51.380;0.098;2022-09-13T07:51:46;18.50;99.90
63260;DHT22;49390;51.380;0.098;2022-09-13T07:54:19;18.40;99.90
63260;DHT22;49390;51.380;0.098;2022-09-13T07:56:49;18.40;99.90
63260;DHT22;49390;51.380;0.098;2022-09-13T07:59:18;18.40;99.90
63260;DHT22;49390;51.380;0.098;2022-09-13T08:01:48;18.40;99.90
63260;DHT22;49390;51.380;0.098;2022-09-13T08:06:44;18.30;99.90
63260;DHT22;49390;51.380;0.098;2022-09-13T08:09:17;18.20;99.90
63260;DHT22;49390;51.380;0.098;2022-09-13T08:11:50;18.10;99.90
63260;DHT22;49390;51.380;0.098;2022-09-13T08:14:22;18.10;99.90
63260;DHT22;49390;51.380;0.098;2022-09-13T08:16:54;18.10;99.90
63260;DHT22;49390;51.380;0.098;2022-09-13T08:19:23;18.10;99.90
63260;DHT22;49390;51.380;0.098;2022-09-13T08:21:51;18.10;99.90
63260;DHT22;49390;51.380;0.098;2022-09-13T08:24:21;18.10;99.90
63260;DHT22;49390;51.380;0.098;2022-09-13T08:26:53;18.10;99.90
63260;DHT22;49390;51.380;0.098;2022-09-13T08:29:21;18.10;99.90
63260;DHT22;49390;51.380;0.098;2022-09-13T08:31:53;18.10;99.90
63260;DHT22;49390;51.380;0.098;2022-09-13T08:34:24;18.10;99.90
63260;DHT22;49390;51.380;0.098;2022-09-13T08:36:52;18.20;99.90
63260;DHT22;49390;51.380;0.098;2022-09-13T08:39:21;18.30;99.90
63260;DHT22;49390;51.380;0.098;2022-09-13T08:42:00;18.30;99.90
63260;DHT22;49390;51.380;0.098;2022-09-13T08:44:44;18.30;99.90
63260;DHT22;49390;51.380;0.098;2022-09-13T08:55:46;18.60;99.90
63260;DHT22;49390;51.380;0.098;2022-09-13T09:01:01;19.00;99.90
63260;DHT22;49390;51.380;0.098;2022-09-13T09:06:11;19.30;99.90
63260;DHT22;49390;51.380;0.098;2022-09-13T09:08:51;19.40;99.90
63260;DHT22;49390;51.380;0.098;2022-09-13T09:11:25;19.40;99.90
63260;DHT22;49390;51.380;0.098;2022-09-13T09:16:44;19.40;99.90
63260;DHT22;49390;51.380;0.098;2022-09-13T09:19:28;19.40;99.90
63260;DHT22;49390;51.380;0.098;2022-09-13T09:22:03;19.40;99.90
63260;DHT22;49390;51.380;0.098;2022-09-13T09:24:34;19.20;99.90
63260;DHT22;49390;51.380;0.098;2022-09-13T09:27:15;19.00;99.90
63260;DHT22;49390;51.380;0.098;2022-09-13T09:29:45;19.00;99.90
63260;DHT22;49390;51.380;0.098;2022-09-13T09:35:41;18.90;99.90
63260;DHT22;49390;51.380;0.098;2022-09-13T09:38:37;18.90;99.90
63260;DHT22;49390;51.380;0.098;2022-09-13T09:46:32;18.90;99.90
63260;DHT22;49390;51.380;0.098;2022-09-13T09:49:36;18.90;99.90
63260;DHT22;49390;51.380;0.098;2022-09-13T09:52:56;18.90;99.90
63260;DHT22;49390;51.380;0.098;2022-09-13T09:55:44;18.90;99.90
63260;DHT22;49390;51.380;0.098;2022-09-13T09:58:14;18.90;99.90
63260;DHT22;49390;51.380;0.098;2022-09-13T10:00:59;18.90;99.90
63260;DHT22;49390;51.380;0.098;2022-09-13T10:03:31;18.90;99.90
63260;DHT22;49390;51.380;0.098;2022-09-13T10:06:09;18.90;99.90
63260;DHT22;49390;51.380;0.098;2022-09-13T10:08:41;18.90;99.90
63260;DHT22;49390;51.380;0.098;2022-09-13T10:11:09;18.90;99.90
63260;DHT22;49390;51.380;0.098;2022-09-13T10:13:38;18.80;99.90
63260;DHT22;49390;51.380;0.098;2022-09-13T10:16:26;18.70;99.90
63260;DHT22;49390;51.380;0.098;2022-09-13T10:19:23;18.70;99.90
63260;DHT22;49390;51.380;0.098;2022-09-13T10:22:00;18.60;99.90
63260;DHT22;49390;51.380;0.098;2022-09-13T10:24:29;18.60;99.90
63260;DHT22;49390;51.380;0.098;2022-09-13T10:26:58;18.60;99.90
63260;DHT22;49390;51.380;0.098;2022-09-13T10:29:27;18.60;99.90
63260;DHT22;49390;51.380;0.098;2022-09-13T10:31:56;18.60;99.90
63260;DHT22;49390;51.380;0.098;2022-09-13T10:34:28;18.60;99.90
63260;DHT22;49390;51.380;0.098;2022-09-13T10:39:55;18.50;99.90
63260;DHT22;49390;51.380;0.098;2022-09-13T10:42:26;18.50;99.90
63260;DHT22;49390;51.380;0.098;2022-09-13T10:50:23;18.50;99.90
63260;DHT22;49390;51.380;0.098;2022-09-13T10:52:56;18.50;99.90
63260;DHT22;49390;51.380;0.098;2022-09-13T11:03:18;18.50;99.90
63260;DHT22;49390;51.380;0.098;2022-09-13T11:06:03;18.50;99.90
63260;DHT22;49390;51.380;0.098;2022-09-13T11:14:21;18.70;99.90
63260;DHT22;49390;51.380;0.098;2022-09-13T11:23:01;19.00;99.90
63260;DHT22;49390;51.380;0.098;2022-09-13T11:25:41;19.10;99.90
63260;DHT22;49390;51.380;0.098;2022-09-13T11:31:45;19.30;99.90
63260;DHT22;49390;51.380;0.098;2022-09-13T11:37:22;19.40;99.90
63260;DHT22;49390;51.380;0.098;2022-09-13T11:40:21;19.40;99.90
63260;DHT22;49390;51.380;0.098;2022-09-13T11:43:14;19.40;99.90
63260;DHT22;49390;51.380;0.098;2022-09-13T11:48:51;19.30;99.90
63260;DHT22;49390;51.380;0.098;2022-09-13T11:51:25;19.30;99.90
63260;DHT22;49390;51.380;0.098;2022-09-13T11:56:49;19.20;99.90
63260;DHT22;49390;51.380;0.098;2022-09-13T12:01:57;19.20;99.90
63260;DHT22;49390;51.380;0.098;2022-09-13T12:04:34;19.10;99.90
63260;DHT22;49390;51.380;0.098;2022-09-13T12:07:34;19.20;99.90
63260;DHT22;49390;51.380;0.098;2022-09-13T12:12:50;19.20;99.90
63260;DHT22;49390;51.380;0.098;2022-09-13T12:15:39;19.20;99.90
63260;DHT22;49390;51.380;0.098;2022-09-13T12:18:15;19.10;99.90
63260;DHT22;49390;51.380;0.098;2022-09-13T12:20:51;19.20;99.90
63260;DHT22;49390;51.380;0.098;2022-09-13T12:23:34;19.20;99.90
63260;DHT22;49390;51.380;0.098;2022-09-13T12:26:14;19.30;99.90
63260;DHT22;49390;51.380;0.098;2022-09-13T12:28:52;19.40;99.90
63260;DHT22;49390;51.380;0.098;2022-09-13T12:31:29;19.40;99.90
63260;DHT22;49390;51.380;0.098;2022-09-13T12:33:58;19.60;99.90
63260;DHT22;49390;51.380;0.098;2022-09-13T12:44:45;19.90;99.90
63260;DHT22;49390;51.380;0.098;2022-09-13T12:47:40;20.00;99.90
63260;DHT22;49390;51.380;0.098;2022-09-13T12:53:18;20.20;99.90
63260;DHT22;49390;51.380;0.098;2022-09-13T12:58:46;20.30;99.90
63260;DHT22;49390;51.380;0.098;2022-09-13T13:01:21;20.30;99.90
63260;DHT22;49390;51.380;0.098;2022-09-13T13:03:57;20.30;99.90
63260;DHT22;49390;51.380;0.098;2022-09-13T13:06:31;20.30;99.90
63260;DHT22;49390;51.380;0.098;2022-09-13T13:09:17;20.20;99.90
63260;DHT22;49390;51.380;0.098;2022-09-13T13:11:56;20.10;99.90
63260;DHT22;49390;51.380;0.098;2022-09-13T13:23:26;19.80;99.90
63260;DHT22;49390;51.380;0.098;2022-09-13T13:26:56;19.80;99.90
63260;DHT22;49390;51.380;0.098;2022-09-13T13:41:59;19.80;99.90
63260;DHT22;49390;51.380;0.098;2022-09-13T13:50:18;19.70;99.90
63260;DHT22;49390;51.380;0.098;2022-09-13T13:55:44;19.70;99.90
63260;DHT22;49390;51.380;0.098;2022-09-13T13:58:30;19.70;99.90
63260;DHT22;49390;51.380;0.098;2022-09-13T14:01:03;19.60;99.90
63260;DHT22;49390;51.380;0.098;2022-09-13T14:03:55;19.60;99.90
63260;DHT22;49390;51.380;0.098;2022-09-13T14:07:05;19.60;99.90
63260;DHT22;49390;51.380;0.098;2022-09-13T14:09:59;19.60;99.90
63260;DHT22;49390;51.380;0.098;2022-09-13T14:12:32;19.60;99.90
63260;DHT22;49390;51.380;0.098;2022-09-13T14:15:20;19.60;99.90
63260;DHT22;49390;51.380;0.098;2022-09-13T14:20:29;19.50;99.90
63260;DHT22;49390;51.380;0.098;2022-09-13T14:23:17;19.50;99.90
63260;DHT22;49390;51.380;0.098;2022-09-13T14:25:53;19.50;99.90
63260;DHT22;49390;51.380;0.098;2022-09-13T14:28:23;19.50;99.90
63260;DHT22;49390;51.380;0.098;2022-09-13T14:30:57;19.40;99.90
63260;DHT22;49390;51.380;0.098;2022-09-13T14:33:35;19.40;99.90
63260;DHT22;49390;51.380;0.098;2022-09-13T14:36:11;19.40;99.90
63260;DHT22;49390;51.380;0.098;2022-09-13T14:38:51;19.50;99.90
63260;DHT22;49390;51.380;0.098;2022-09-13T14:41:36;19.50;99.90
63260;DHT22;49390;51.380;0.098;2022-09-13T14:44:22;19.40;99.90
63260;DHT22;49390;51.380;0.098;2022-09-13T14:46:58;19.30;99.90
63260;DHT22;49390;51.380;0.098;2022-09-13T14:49:35;19.30;99.90
63260;DHT22;49390;51.380;0.098;2022-09-13T14:52:14;19.30;99.90
63260;DHT22;49390;51.380;0.098;2022-09-13T14:54:45;19.20;99.90
63260;DHT22;49390;51.380;0.098;2022-09-13T14:59:55;19.20;99.90
63260;DHT22;49390;51.380;0.098;2022-09-13T15:02:35;19.20;99.90
63260;DHT22;49390;51.380;0.098;2022-09-13T15:05:12;19.10;99.90
63260;DHT22;49390;51.380;0.098;2022-09-13T15:07:42;19.10;99.90
63260;DHT22;49390;51.380;0.098;2022-09-13T15:10:26;19.00;99.90
63260;DHT22;49390;51.380;0.098;2022-09-13T15:21:03;18.90;99.90
63260;DHT22;49390;51.380;0.098;2022-09-13T15:23:40;18.90;99.90
63260;DHT22;49390;51.380;0.098;2022-09-13T15:26:19;18.80;99.90
63260;DHT22;49390;51.380;0.098;2022-09-13T15:28:57;18.80;99.90
63260;DHT22;49390;51.380;0.098;2022-09-13T15:31:31;18.90;99.90
63260;DHT22;49390;51.380;0.098;2022-09-13T15:34:29;18.80;99.90
63260;DHT22;49390;51.380;0.098;2022-09-13T15:39:47;18.90;99.90
63260;DHT22;49390;51.380;0.098;2022-09-13T15:42:16;18.90;99.90
63260;DHT22;49390;51.380;0.098;2022-09-13T15:44:46;18.90;99.90
63260;DHT22;49390;51.380;0.098;2022-09-13T15:47:17;18.90;99.90
63260;DHT22;49390;51.380;0.098;2022-09-13T15:49:48;18.80;99.90
63260;DHT22;49390;51.380;0.098;2022-09-13T15:52:19;18.80;99.90
63260;DHT22;49390;51.380;0.098;2022-09-13T15:54:49;18.80;99.90
63260;DHT22;49390;51.380;0.098;2022-09-13T15:57:23;18.70;99.90
63260;DHT22;49390;51.380;0.098;2022-09-13T16:02:30;18.60;99.90
63260;DHT22;49390;51.380;0.098;2022-09-13T16:05:01;18.60;99.90
63260;DHT22;49390;51.380;0.098;2022-09-13T16:07:34;18.60;99.90
63260;DHT22;49390;51.380;0.098;2022-09-13T16:10:03;18.60;99.90
63260;DHT22;49390;51.380;0.098;2022-09-13T16:12:32;18.60;99.90
63260;DHT22;49390;51.380;0.098;2022-09-13T16:15:00;18.60;99.90
63260;DHT22;49390;51.380;0.098;2022-09-13T16:17:29;18.60;99.90
63260;DHT22;49390;51.380;0.098;2022-09-13T16:19:58;18.50;99.90
63260;DHT22;49390;51.380;0.098;2022-09-13T16:22:26;18.50;99.90
63260;DHT22;49390;51.380;0.098;2022-09-13T16:24:55;18.50;99.90
63260;DHT22;49390;51.380;0.098;2022-09-13T16:27:23;18.50;99.90
63260;DHT22;49390;51.380;0.098;2022-09-13T16:30:03;18.50;99.90
63260;DHT22;49390;51.380;0.098;2022-09-13T16:32:34;18.50;99.90
63260;DHT22;49390;51.380;0.098;2022-09-13T16:35:06;18.50;99.90
63260;DHT22;49390;51.380;0.098;2022-09-13T16:37:34;18.40;99.90
63260;DHT22;49390;51.380;0.098;2022-09-13T16:40:03;18.40;99.90
63260;DHT22;49390;51.380;0.098;2022-09-13T16:42:37;18.40;99.90
63260;DHT22;49390;51.380;0.098;2022-09-13T16:45:09;18.40;99.90
63260;DHT22;49390;51.380;0.098;2022-09-13T16:47:38;18.40;99.90
63260;DHT22;49390;51.380;0.098;2022-09-13T16:50:07;18.40;99.90
63260;DHT22;49390;51.380;0.098;2022-09-13T16:52:36;18.40;99.90
63260;DHT22;49390;51.380;0.098;2022-09-13T16:55:05;18.40;99.90
63260;DHT22;49390;51.380;0.098;2022-09-13T16:57:35;18.50;99.90
63260;DHT22;49390;51.380;0.098;2022-09-13T17:00:06;18.40;99.90
63260;DHT22;49390;51.380;0.098;2022-09-13T17:02:39;18.40;99.90
63260;DHT22;49390;51.380;0.098;2022-09-13T17:05:08;18.40;99.90
63260;DHT22;49390;51.380;0.098;2022-09-13T17:07:38;18.30;99.90
63260;DHT22;49390;51.380;0.098;2022-09-13T17:10:10;18.30;99.90
63260;DHT22;49390;51.380;0.098;2022-09-13T17:12:39;18.30;99.90
63260;DHT22;49390;51.380;0.098;2022-09-13T17:15:10;18.20;99.90
63260;DHT22;49390;51.380;0.098;2022-09-13T17:17:39;18.10;99.90
63260;DHT22;49390;51.380;0.098;2022-09-13T17:20:48;18.10;99.90
63260;DHT22;49390;51.380;0.098;2022-09-13T17:23:17;18.10;99.90
63260;DHT22;49390;51.380;0.098;2022-09-13T17:25:47;18.10;99.90
63260;DHT22;49390;51.380;0.098;2022-09-13T17:28:16;18.00;99.90
63260;DHT22;49390;51.380;0.098;2022-09-13T17:30:45;18.00;99.90
63260;DHT22;49390;51.380;0.098;2022-09-13T17:33:14;18.00;99.90
63260;DHT22;49390;51.380;0.098;2022-09-13T17:35:42;17.90;99.90
63260;DHT22;49390;51.380;0.098;2022-09-13T17:38:11;18.00;99.90
63260;DHT22;49390;51.380;0.098;2022-09-13T17:40:41;17.90;99.90
63260;DHT22;49390;51.380;0.098;2022-09-13T17:43:10;18.00;99.90
63260;DHT22;49390;51.380;0.098;2022-09-13T17:45:40;17.90;99.90
63260;DHT22;49390;51.380;0.098;2022-09-13T17:48:10;17.90;99.90
63260;DHT22;49390;51.380;0.098;2022-09-13T17:50:39;17.90;99.90
63260;DHT22;49390;51.380;0.098;2022-09-13T17:53:10;17.90;99.90
63260;DHT22;49390;51.380;0.098;2022-09-13T17:55:47;17.80;99.90
63260;DHT22;49390;51.380;0.098;2022-09-13T17:58:15;17.80;99.90
63260;DHT22;49390;51.380;0.098;2022-09-13T18:00:43;17.70;99.90
63260;DHT22;49390;51.380;0.098;2022-09-13T18:03:12;17.70;99.90
63260;DHT22;49390;51.380;0.098;2022-09-13T18:05:41;17.60;99.90
63260;DHT22;49390;51.380;0.098;2022-09-13T18:08:09;17.60;99.90
63260;DHT22;49390;51.380;0.098;2022-09-13T18:10:37;17.60;99.90
63260;DHT22;49390;51.380;0.098;2022-09-13T18:13:28;17.60;99.90
63260;DHT22;49390;51.380;0.098;2022-09-13T18:16:01;17.50;99.90
63260;DHT22;49390;51.380;0.098;2022-09-13T18:18:32;17.50;99.90
63260;DHT22;49390;51.380;0.098;2022-09-13T18:21:01;17.50;99.90
63260;DHT22;49390;51.380;0.098;2022-09-13T18:23:30;17.50;99.90
63260;DHT22;49390;51.380;0.098;2022-09-13T18:26:02;17.40;99.90
63260;DHT22;49390;51.380;0.098;2022-09-13T18:28:37;17.40;99.90
63260;DHT22;49390;51.380;0.098;2022-09-13T18:31:08;17.40;99.90
63260;DHT22;49390;51.380;0.098;2022-09-13T18:33:37;17.50;99.90
63260;DHT22;49390;51.380;0.098;2022-09-13T18:36:09;17.50;99.90
63260;DHT22;49390;51.380;0.098;2022-09-13T18:38:40;17.50;99.90
63260;DHT22;49390;51.380;0.098;2022-09-13T18:41:17;17.50;99.90
63260;DHT22;49390;51.380;0.098;2022-09-13T18:43:48;17.50;99.90
63260;DHT22;49390;51.380;0.098;2022-09-13T18:46:25;17.40;99.90
63260;DHT22;49390;51.380;0.098;2022-09-13T18:48:55;17.50;99.90
63260;DHT22;49390;51.380;0.098;2022-09-13T18:53:52;17.40;99.90
63260;DHT22;49390;51.380;0.098;2022-09-13T18:56:22;17.50;99.90
63260;DHT22;49390;51.380;0.098;2022-09-13T18:58:53;17.40;99.90
63260;DHT22;49390;51.380;0.098;2022-09-13T19:01:30;17.40;99.90
63260;DHT22;49390;51.380;0.098;2022-09-13T19:04:19;17.40;99.90
63260;DHT22;49390;51.380;0.098;2022-09-13T19:06:53;17.40;99.90
63260;DHT22;49390;51.380;0.098;2022-09-13T19:09:25;17.40;99.90
63260;DHT22;49390;51.380;0.098;2022-09-13T19:11:54;17.40;99.90
63260;DHT22;49390;51.380;0.098;2022-09-13T19:14:26;17.40;99.90
63260;DHT22;49390;51.380;0.098;2022-09-13T19:17:05;17.30;99.90